createdAt,value
2018-12-29T00:01:05.280Z,49.70
2018-12-29T00:03:32.626Z,55.15
2018-12-29T00:05:59.835Z,32.65
2018-12-29T00:08:27.074Z,33.05
2018-12-29T00:10:58.536Z,31.23
2018-12-29T00:13:25.305Z,31.93
2018-12-29T00:15:57.424Z,28.15
2018-12-29T00:18:24.181Z,27.75
2018-12-29T00:20:51.098Z,27.55
2018-12-29T00:23:18.292Z,26.10
2018-12-29T00:25:45.351Z,24.67
2018-12-29T00:28:12.419Z,24.35
2018-12-29T00:30:39.494Z,35.38
2018-12-29T00:33:06.622Z,27.42
2018-12-29T00:35:33.543Z,24.23
2018-12-29T00:38:06.234Z,28.52
2018-12-29T00:40:33.150Z,30.77
2018-12-29T00:43:00.244Z,29.20
2018-12-29T00:45:27.330Z,27.98
2018-12-29T00:47:54.402Z,27.77
2018-12-29T00:52:54.269Z,25.75
2018-12-29T00:55:21.115Z,26.07
2018-12-29T00:57:48.288Z,30.62
2018-12-29T01:00:15.167Z,26.95
2018-12-29T01:02:42.228Z,27.87
2018-12-29T01:05:09.107Z,33.50
2018-12-29T01:07:36.367Z,24.92
2018-12-29T01:10:03.353Z,32.35
2018-12-29T01:12:30.513Z,24.75
2018-12-29T01:14:57.371Z,35.63
2018-12-29T01:17:24.649Z,24.75
2018-12-29T01:19:51.627Z,28.90
2018-12-29T01:22:18.786Z,25.30
2018-12-29T01:24:45.860Z,33.67
2018-12-29T01:27:12.701Z,26.70
2018-12-29T01:29:41.741Z,29.77
2018-12-29T01:32:08.879Z,23.22
2018-12-29T01:34:35.770Z,22.32
2018-12-29T01:37:02.942Z,26.93
2018-12-29T01:39:30.200Z,21.15
2018-12-29T01:41:57.451Z,23.55
2018-12-29T01:44:24.250Z,22.93
2018-12-29T01:46:57.361Z,21.23
2018-12-29T01:49:24.278Z,24.32
2018-12-29T01:51:51.701Z,24.92
2018-12-29T01:54:18.952Z,20.48
2018-12-29T01:56:45.943Z,26.17
2018-12-29T01:59:13.017Z,21.73
2018-12-29T02:01:40.268Z,28.65
2018-12-29T02:04:07.228Z,22.85
2018-12-29T02:06:34.320Z,25.68
2018-12-29T02:09:01.294Z,21.57
2018-12-29T02:11:30.296Z,21.07
2018-12-29T02:13:57.460Z,19.95
2018-12-29T02:16:24.146Z,18.87
2018-12-29T02:18:51.206Z,23.07
2018-12-29T02:21:18.347Z,25.15
2018-12-29T02:23:45.249Z,18.92
2018-12-29T02:26:12.507Z,24.47
2018-12-29T02:28:39.682Z,21.07
2018-12-29T02:31:06.822Z,20.95
2018-12-29T02:33:34.240Z,18.92
2018-12-29T02:36:03.470Z,24.77
2018-12-29T02:38:30.134Z,19.45
2018-12-29T02:40:57.252Z,20.68
2018-12-29T02:43:28.236Z,18.67
2018-12-29T02:45:55.097Z,21.35
2018-12-29T02:48:22.294Z,17.85
2018-12-29T02:50:49.248Z,23.07
2018-12-29T02:53:18.708Z,19.67
2018-12-29T02:55:44.907Z,24.12
2018-12-29T02:58:12.087Z,14.87
2018-12-29T03:00:39.166Z,21.17
2018-12-29T03:03:06.526Z,24.90
2018-12-29T03:05:33.601Z,23.12
2018-12-29T03:08:00.679Z,22.65
2018-12-29T03:10:27.641Z,22.17
2018-12-29T03:12:54.424Z,24.35
2018-12-29T03:15:21.366Z,20.00
2018-12-29T03:17:48.310Z,21.48
2018-12-29T03:20:15.103Z,20.30
2018-12-29T03:22:42.273Z,21.02
2018-12-29T03:25:11.897Z,25.32
2018-12-29T03:27:39.061Z,27.90
2018-12-29T03:30:06.041Z,21.20
2018-12-29T03:32:33.513Z,21.05
2018-12-29T03:35:00.382Z,24.90
2018-12-29T03:37:27.753Z,22.73
2018-12-29T03:42:27.931Z,22.40
2018-12-29T03:44:54.886Z,20.40
2018-12-29T03:47:21.875Z,22.87
2018-12-29T03:49:48.926Z,17.77
2018-12-29T03:52:15.891Z,21.12
2018-12-29T03:54:42.939Z,26.42
2018-12-29T03:57:10.036Z,33.40
2018-12-29T03:59:36.896Z,27.13
2018-12-29T04:02:08.344Z,29.12
2018-12-29T04:04:33.011Z,25.35
2018-12-29T04:07:03.012Z,33.00
2018-12-29T04:09:29.949Z,31.00
2018-12-29T04:11:56.896Z,35.43
2018-12-29T04:14:27.184Z,34.73
2018-12-29T04:16:54.162Z,44.45
2018-12-29T04:19:21.332Z,33.13
2018-12-29T04:21:48.273Z,39.23
2018-12-29T04:24:15.371Z,37.75
2018-12-29T04:26:42.542Z,34.67
2018-12-29T04:29:09.504Z,28.35
2018-12-29T04:31:36.484Z,25.57
2018-12-29T04:34:03.575Z,27.22
2018-12-29T04:36:30.510Z,31.52
2018-12-29T04:38:57.591Z,27.80
2018-12-29T04:41:24.303Z,28.90
2018-12-29T04:43:51.804Z,27.30
2018-12-29T04:46:18.683Z,21.00
2018-12-29T04:48:45.870Z,33.45
2018-12-29T04:51:13.242Z,31.68
2018-12-29T04:53:40.515Z,36.85
2018-12-29T04:56:07.684Z,27.98
2018-12-29T04:58:35.270Z,26.65
2018-12-29T05:01:02.141Z,23.05
2018-12-29T05:03:29.648Z,22.65
2018-12-29T05:05:56.565Z,25.52
2018-12-29T05:08:23.751Z,25.50
2018-12-29T05:10:50.699Z,23.47
2018-12-29T05:13:17.674Z,28.07
2018-12-29T05:15:44.634Z,31.62
2018-12-29T05:18:12.727Z,26.05
2018-12-29T05:20:39.607Z,32.28
2018-12-29T05:23:08.827Z,23.70
2018-12-29T05:25:35.786Z,28.55
2018-12-29T05:28:03.786Z,30.43
2018-12-29T05:30:30.824Z,22.65
2018-12-29T05:33:06.716Z,28.52
2018-12-29T05:35:33.874Z,24.05
2018-12-29T05:38:00.730Z,23.32
2018-12-29T05:40:27.583Z,27.73
2018-12-29T05:42:54.885Z,28.65
2018-12-29T05:45:27.583Z,20.48
2018-12-29T05:47:57.415Z,18.77
2018-12-29T05:50:24.276Z,18.98
2018-12-29T05:52:51.755Z,21.68
2018-12-29T05:55:18.720Z,20.97
2018-12-29T05:57:54.582Z,20.70
2018-12-29T06:00:21.861Z,20.52
2018-12-29T06:02:48.732Z,23.18
2018-12-29T06:05:15.562Z,24.87
2018-12-29T06:07:42.648Z,25.10
2018-12-29T06:10:19.034Z,21.97
2018-12-29T06:12:45.991Z,21.80
2018-12-29T06:15:13.368Z,22.30
2018-12-29T06:17:40.352Z,21.87
2018-12-29T06:20:07.314Z,27.80
2018-12-29T06:22:43.484Z,23.30
2018-12-29T06:25:10.862Z,26.15
2018-12-29T06:27:40.463Z,26.17
2018-12-29T06:30:08.380Z,22.45
2018-12-29T06:32:35.344Z,24.10
2018-12-29T06:35:05.631Z,25.82
2018-12-29T06:37:32.903Z,18.25
2018-12-29T06:39:59.934Z,39.85
2018-12-29T06:42:26.890Z,125.55
2018-12-29T06:44:56.464Z,55.98
2018-12-29T06:47:30.132Z,21.42
2018-12-29T06:49:57.499Z,22.67
2018-12-29T06:52:24.374Z,25.15
2018-12-29T06:54:52.440Z,17.12
2018-12-29T06:57:19.440Z,18.77
2018-12-29T06:59:48.512Z,23.10
2018-12-29T07:02:15.383Z,18.10
2018-12-29T07:04:43.215Z,19.90
2018-12-29T07:07:10.297Z,19.52
2018-12-29T07:09:37.498Z,19.65
2018-12-29T07:12:04.298Z,19.02
2018-12-29T07:14:31.183Z,19.32
2018-12-29T07:16:58.099Z,19.73
2018-12-29T07:19:25.217Z,17.65
2018-12-29T07:22:02.804Z,24.05
2018-12-29T07:24:30.089Z,14.63
2018-12-29T07:26:57.038Z,18.45
2018-12-29T07:29:23.916Z,16.32
2018-12-29T07:31:51.187Z,15.58
2018-12-29T07:34:23.972Z,16.65
2018-12-29T07:36:50.852Z,21.15
2018-12-29T07:39:18.344Z,16.90
2018-12-29T07:41:45.463Z,18.82
2018-12-29T07:44:12.771Z,30.35
2018-12-29T07:46:49.603Z,40.23
2018-12-29T07:49:12.250Z,41.83
2018-12-29T07:51:39.392Z,36.48
2018-12-29T07:54:06.584Z,34.20
2018-12-29T07:56:33.529Z,37.38
2018-12-29T07:59:00.512Z,43.80
2018-12-29T08:01:27.252Z,43.95
2018-12-29T08:03:54.046Z,38.53
2018-12-29T08:06:21.211Z,37.05
2018-12-29T08:08:48.682Z,31.87
2018-12-29T08:11:15.591Z,25.82
2018-12-29T08:13:45.680Z,27.27
2018-12-29T08:16:12.469Z,26.77
2018-12-29T08:18:39.179Z,24.40
2018-12-29T08:21:06.033Z,23.40
2018-12-29T08:23:32.926Z,19.62
2018-12-29T08:25:59.589Z,20.52
2018-12-29T08:28:26.171Z,23.50
2018-12-29T08:30:53.060Z,22.27
2018-12-29T08:33:20.004Z,28.38
2018-12-29T08:35:46.907Z,25.32
2018-12-29T08:38:20.269Z,23.40
2018-12-29T08:40:47.026Z,23.95
2018-12-29T08:43:17.058Z,25.62
2018-12-29T08:45:45.302Z,31.73
2018-12-29T08:48:12.194Z,30.37
2018-12-29T08:50:39.362Z,38.85
2018-12-29T08:53:06.461Z,52.15
2018-12-29T08:55:33.539Z,54.83
2018-12-29T08:58:00.528Z,52.83
2018-12-29T09:00:27.783Z,41.23
2018-12-29T09:02:54.841Z,41.50
2018-12-29T09:05:22.145Z,29.98
2018-12-29T09:07:49.182Z,30.12
2018-12-29T09:10:16.371Z,22.50
2018-12-29T09:12:43.441Z,21.45
2018-12-29T09:15:10.493Z,23.35
2018-12-29T09:17:37.384Z,20.95
2018-12-29T09:20:04.545Z,17.52
2018-12-29T09:22:31.505Z,22.27
2018-12-29T09:25:00.761Z,23.12
2018-12-29T09:27:27.173Z,21.45
2018-12-29T09:29:54.240Z,17.65
2018-12-29T09:32:21.120Z,25.77
2018-12-29T09:34:48.183Z,21.97
2018-12-29T09:37:15.156Z,19.77
2018-12-29T09:39:42.139Z,22.32
2018-12-29T09:42:09.182Z,18.48
2018-12-29T09:44:36.258Z,20.30
2018-12-29T09:47:03.010Z,17.42
2018-12-29T09:49:30.330Z,18.00
2018-12-29T09:51:57.324Z,18.60
2018-12-29T09:54:24.322Z,18.57
2018-12-29T09:56:51.197Z,25.15
2018-12-29T09:59:18.080Z,18.27
2018-12-29T10:01:45.048Z,22.37
2018-12-29T10:04:11.795Z,25.60
2018-12-29T10:06:38.691Z,24.63
2018-12-29T10:09:05.816Z,21.87
2018-12-29T10:11:32.885Z,20.48
2018-12-29T10:14:00.715Z,25.88
2018-12-29T10:16:28.325Z,25.92
2018-12-29T10:18:55.133Z,20.52
2018-12-29T10:21:22.105Z,28.60
2018-12-29T10:23:49.044Z,23.05
2018-12-29T10:26:16.205Z,20.65
2018-12-29T10:28:43.046Z,24.80
2018-12-29T10:31:10.166Z,23.00
2018-12-29T10:33:37.020Z,20.30
2018-12-29T10:36:04.523Z,23.83
2018-12-29T10:38:31.292Z,45.43
2018-12-29T10:40:58.239Z,28.07
2018-12-29T10:43:25.403Z,32.15
2018-12-29T10:45:52.223Z,29.72
2018-12-29T10:48:19.023Z,25.95
2018-12-29T10:50:46.202Z,26.30
2018-12-29T10:53:12.962Z,32.13
2018-12-29T10:55:39.956Z,32.70
2018-12-29T10:58:07.038Z,24.02
2018-12-29T11:00:35.121Z,30.77
2018-12-29T11:03:03.600Z,28.07
2018-12-29T11:05:30.478Z,28.95
2018-12-29T11:08:05.522Z,32.42
2018-12-29T11:10:32.903Z,35.28
2018-12-29T11:12:59.663Z,30.25
2018-12-29T11:15:26.726Z,26.85
2018-12-29T11:17:53.599Z,32.73
2018-12-29T11:20:20.760Z,27.70
2018-12-29T11:22:47.594Z,32.38
2018-12-29T11:25:14.862Z,26.33
2018-12-29T11:27:41.622Z,25.20
2018-12-29T11:30:08.310Z,29.37
2018-12-29T11:32:35.198Z,25.68
2018-12-29T11:35:01.950Z,28.05
2018-12-29T11:37:28.703Z,27.77
2018-12-29T11:39:55.896Z,22.62
2018-12-29T11:42:22.577Z,22.00
2018-12-29T11:44:49.201Z,19.75
2018-12-29T11:47:16.401Z,28.10
2018-12-29T11:49:43.009Z,20.00
2018-12-29T11:52:10.199Z,43.83
2018-12-29T11:54:37.500Z,19.17
2018-12-29T11:57:04.363Z,22.55
2018-12-29T11:59:30.941Z,24.20
2018-12-29T12:01:57.700Z,26.75
2018-12-29T12:04:24.448Z,21.15
2018-12-29T12:06:51.583Z,20.02
2018-12-29T12:09:18.127Z,21.68
2018-12-29T12:11:44.780Z,21.40
2018-12-29T12:14:11.811Z,29.37
2018-12-29T12:16:38.522Z,17.30
2018-12-29T12:19:05.299Z,20.80
2018-12-29T12:21:32.382Z,24.77
2018-12-29T12:23:59.138Z,23.52
2018-12-29T12:26:26.300Z,20.30
2018-12-29T12:28:53.182Z,21.20
2018-12-29T12:31:20.599Z,21.82
2018-12-29T12:33:47.332Z,20.20
2018-12-29T12:36:14.573Z,20.75
2018-12-29T12:38:41.472Z,21.23
2018-12-29T12:41:08.290Z,21.02
2018-12-29T12:43:35.132Z,18.65
2018-12-29T12:46:02.371Z,22.10
2018-12-29T12:48:29.311Z,20.23
2018-12-29T12:50:56.512Z,21.05
2018-12-29T12:53:23.212Z,20.12
2018-12-29T12:55:50.030Z,18.65
2018-12-29T12:58:17.312Z,22.50
2018-12-29T13:00:44.692Z,18.35
2018-12-29T13:03:11.912Z,15.50
2018-12-29T13:05:38.600Z,14.05
2018-12-29T13:08:05.675Z,15.45
2018-12-29T13:10:32.435Z,15.20
2018-12-29T13:12:59.224Z,14.60
2018-12-29T13:15:26.079Z,14.63
2018-12-29T13:17:53.250Z,12.60
2018-12-29T13:20:20.287Z,14.18
2018-12-29T13:22:47.254Z,20.70
2018-12-29T13:25:13.966Z,17.35
2018-12-29T13:27:41.932Z,13.98
2018-12-29T13:30:08.883Z,12.88
2018-12-29T13:32:35.767Z,22.75
2018-12-29T13:35:03.248Z,12.90
2018-12-29T13:37:30.321Z,13.62
2018-12-29T13:39:57.261Z,14.15
2018-12-29T13:42:24.362Z,14.50
2018-12-29T13:44:51.502Z,12.65
2018-12-29T13:47:18.461Z,16.37
2018-12-29T13:49:45.444Z,14.05
2018-12-29T13:52:12.516Z,12.45
2018-12-29T13:54:39.162Z,13.25
2018-12-29T13:57:05.925Z,18.55
2018-12-29T13:59:32.768Z,15.65
2018-12-29T14:01:59.444Z,14.03
2018-12-29T14:04:26.335Z,16.42
2018-12-29T14:06:53.091Z,12.15
2018-12-29T14:09:20.449Z,12.95
2018-12-29T14:11:47.227Z,12.70
2018-12-29T14:14:13.855Z,15.85
2018-12-29T14:16:40.824Z,15.45
2018-12-29T14:19:07.501Z,14.03
2018-12-29T14:21:34.222Z,14.40
2018-12-29T14:24:01.073Z,16.35
2018-12-29T14:26:31.213Z,19.85
2018-12-29T14:28:58.433Z,13.98
2018-12-29T14:31:25.183Z,16.75
2018-12-29T14:33:51.914Z,15.55
2018-12-29T14:36:18.846Z,13.25
2018-12-29T14:38:45.786Z,14.28
2018-12-29T14:41:15.746Z,15.83
2018-12-29T14:43:42.665Z,15.65
2018-12-29T14:46:09.347Z,15.15
2018-12-29T14:48:36.278Z,12.60
2018-12-29T14:51:03.188Z,17.70
2018-12-29T14:53:30.160Z,14.47
2018-12-29T14:55:57.338Z,13.35
2018-12-29T14:58:24.518Z,18.80
2018-12-29T15:00:51.092Z,18.07
2018-12-29T15:03:17.938Z,15.00
2018-12-29T15:05:44.800Z,19.12
2018-12-29T15:08:12.054Z,17.10
2018-12-29T15:10:39.027Z,20.80
2018-12-29T15:13:06.417Z,16.90
2018-12-29T15:15:33.169Z,15.90
2018-12-29T15:18:00.028Z,18.17
2018-12-29T15:20:27.208Z,17.27
2018-12-29T15:22:54.171Z,17.42
2018-12-29T15:25:21.249Z,16.65
2018-12-29T15:27:48.828Z,14.35
2018-12-29T15:30:15.689Z,11.85
2018-12-29T15:32:42.591Z,14.50
2018-12-29T15:35:10.129Z,14.93
2018-12-29T15:37:36.988Z,14.83
2018-12-29T15:40:04.054Z,16.75
2018-12-29T15:42:30.963Z,13.40
2018-12-29T15:44:57.918Z,16.80
2018-12-29T15:47:25.071Z,17.65
2018-12-29T15:49:52.547Z,26.25
2018-12-29T15:52:19.531Z,21.82
2018-12-29T15:54:47.212Z,27.50
2018-12-29T15:57:14.163Z,29.05
2018-12-29T15:59:41.422Z,21.60
2018-12-29T16:02:08.620Z,23.83
2018-12-29T16:04:35.603Z,25.08
2018-12-29T16:07:02.650Z,23.52
2018-12-29T16:09:30.665Z,21.48
2018-12-29T16:11:58.213Z,23.32
2018-12-29T16:14:25.013Z,25.95
2018-12-29T16:16:51.848Z,18.98
2018-12-29T16:19:18.824Z,28.30
2018-12-29T16:21:45.798Z,27.05
2018-12-29T16:24:13.378Z,28.80
2018-12-29T16:26:40.337Z,19.77
2018-12-29T16:29:13.992Z,27.13
2018-12-29T16:31:36.203Z,22.95
2018-12-29T16:34:03.688Z,19.10
2018-12-29T16:36:31.264Z,22.27
2018-12-29T16:38:58.544Z,22.73
2018-12-29T16:41:25.500Z,23.07
2018-12-29T16:43:52.998Z,19.50
2018-12-29T16:46:19.868Z,24.32
2018-12-29T16:48:46.923Z,22.05
2018-12-29T16:51:17.059Z,18.07
2018-12-29T16:53:44.328Z,18.57
2018-12-29T16:56:11.190Z,21.82
2018-12-29T16:58:38.364Z,24.85
2018-12-29T17:01:05.359Z,24.67
2018-12-29T17:03:32.301Z,19.92
2018-12-29T17:05:59.439Z,20.25
2018-12-29T17:08:27.243Z,21.25
2018-12-29T17:10:54.339Z,31.20
2018-12-29T17:13:21.401Z,24.90
2018-12-29T17:15:48.668Z,24.82
2018-12-29T17:18:15.540Z,27.45
2018-12-29T17:20:42.600Z,25.45
2018-12-29T17:23:09.583Z,23.22
2018-12-29T17:25:36.868Z,22.13
2018-12-29T17:28:03.719Z,30.45
2018-12-29T17:30:30.400Z,24.60
2018-12-29T17:32:57.481Z,24.60
2018-12-29T17:35:24.720Z,28.52
2018-12-29T17:37:51.680Z,25.48
2018-12-29T17:40:18.701Z,26.00
2018-12-29T17:42:45.621Z,23.62
2018-12-29T17:45:12.899Z,28.32
2018-12-29T17:47:39.659Z,31.27
2018-12-29T17:50:06.508Z,27.75
2018-12-29T17:52:33.438Z,29.23
2018-12-29T17:55:00.559Z,29.52
2018-12-29T17:57:27.500Z,25.92
2018-12-29T17:59:54.220Z,37.55
2018-12-29T18:02:21.063Z,39.33
2018-12-29T18:04:47.830Z,33.45
2018-12-29T18:07:14.561Z,31.70
2018-12-29T18:09:41.203Z,45.15
2018-12-29T18:12:08.062Z,46.55
2018-12-29T18:14:34.718Z,50.67
2018-12-29T18:17:01.352Z,61.53
2018-12-29T18:19:30.864Z,56.50
2018-12-29T18:21:56.469Z,47.13
2018-12-29T18:24:23.129Z,57.65
2018-12-29T18:26:49.828Z,59.23
2018-12-29T18:29:16.494Z,59.98
2018-12-29T18:31:43.145Z,50.05
2018-12-29T18:34:09.874Z,52.08
2018-12-29T18:36:36.532Z,48.23
2018-12-29T18:39:03.260Z,56.25
2018-12-29T18:41:30.027Z,52.90
2018-12-29T18:43:56.686Z,43.63
2018-12-29T18:46:23.409Z,41.53
2018-12-29T18:48:50.081Z,34.13
2018-12-29T18:51:16.718Z,29.63
2018-12-29T18:53:43.739Z,30.65
2018-12-29T18:56:10.544Z,39.18
2018-12-29T18:58:37.218Z,34.88
2018-12-29T19:01:03.955Z,29.50
2018-12-29T19:03:30.702Z,34.08
2018-12-29T19:05:57.864Z,33.28
2018-12-29T19:08:24.522Z,32.42
2018-12-29T19:10:51.186Z,27.93
2018-12-29T19:13:18.777Z,35.50
2018-12-29T19:15:45.945Z,25.88
2018-12-29T19:18:12.663Z,28.60
2018-12-29T19:20:39.443Z,45.50
2018-12-29T19:23:06.681Z,56.28
2018-12-29T19:25:33.339Z,50.83
2018-12-29T19:28:00.131Z,44.45
2018-12-29T19:30:27.196Z,48.30
2018-12-29T19:32:54.499Z,52.58
2018-12-29T19:35:21.102Z,45.23
2018-12-29T19:37:47.768Z,36.13
2018-12-29T19:40:14.453Z,37.15
2018-12-29T19:42:41.703Z,34.73
2018-12-29T19:45:08.384Z,37.25
2018-12-29T19:47:35.039Z,39.55
2018-12-29T19:50:02.027Z,39.15
2018-12-29T19:52:28.687Z,34.53
2018-12-29T19:54:55.450Z,45.73
2018-12-29T19:57:22.667Z,59.65
2018-12-29T19:59:49.426Z,80.70
2018-12-29T20:02:16.690Z,76.75
2018-12-29T20:04:43.700Z,86.97
2018-12-29T20:07:10.757Z,76.90
2018-12-29T20:09:38.143Z,78.02
2018-12-29T20:12:04.785Z,72.75
2018-12-29T20:14:31.546Z,52.17
2018-12-29T20:16:58.201Z,41.48
2018-12-29T20:19:24.944Z,43.28
2018-12-29T20:21:51.668Z,51.55
2018-12-29T20:24:18.977Z,50.28
2018-12-29T20:26:45.763Z,49.75
2018-12-29T20:29:12.620Z,44.15
2018-12-29T20:31:39.362Z,37.23
2018-12-29T20:34:06.180Z,31.00
2018-12-29T20:36:32.880Z,28.40
2018-12-29T20:38:59.983Z,31.23
2018-12-29T20:41:26.519Z,31.20
2018-12-29T20:43:53.339Z,27.90
2018-12-29T20:46:20.026Z,30.75
2018-12-29T20:48:46.707Z,28.50
2018-12-29T20:51:13.510Z,29.27
2018-12-29T20:53:40.126Z,27.00
2018-12-29T20:56:06.879Z,29.42
2018-12-29T20:58:33.605Z,27.75
2018-12-29T21:01:00.317Z,29.20
2018-12-29T21:03:26.950Z,25.15
2018-12-29T21:05:54.100Z,29.42
2018-12-29T21:08:20.761Z,22.20
2018-12-29T21:10:48.070Z,27.52
2018-12-29T21:13:14.803Z,24.60
2018-12-29T21:15:41.593Z,31.33
2018-12-29T21:18:08.383Z,29.23
2018-12-29T21:20:35.274Z,23.12
2018-12-29T21:23:01.961Z,25.85
2018-12-29T21:25:28.786Z,28.52
2018-12-29T21:27:55.606Z,28.00
2018-12-29T21:30:22.274Z,34.43
2018-12-29T21:32:48.957Z,26.80
2018-12-29T21:35:15.867Z,28.40
2018-12-29T21:37:42.606Z,26.97
2018-12-29T21:40:09.417Z,28.47
2018-12-29T21:42:36.119Z,29.82
2018-12-29T21:45:02.901Z,35.58
2018-12-29T21:47:29.541Z,32.15
2018-12-29T21:49:56.342Z,30.72
2018-12-29T21:52:23.019Z,27.37
2018-12-29T21:54:49.701Z,24.63
2018-12-29T21:57:16.520Z,28.42
2018-12-29T21:59:43.762Z,29.12
2018-12-29T22:02:10.488Z,25.30
2018-12-29T22:04:37.340Z,33.18
2018-12-29T22:07:04.011Z,30.57
2018-12-29T22:09:30.697Z,31.55
2018-12-29T22:11:57.401Z,26.82
2018-12-29T22:14:24.081Z,30.72
2018-12-29T22:16:50.799Z,24.45
2018-12-29T22:19:17.513Z,24.40
2018-12-29T22:21:44.111Z,26.27
2018-12-29T22:24:10.818Z,28.60
2018-12-29T22:26:37.563Z,32.28
2018-12-29T22:29:04.232Z,24.30
2018-12-29T22:31:31.723Z,29.32
2018-12-29T22:33:58.350Z,23.92
2018-12-29T22:36:25.022Z,30.80
2018-12-29T22:38:51.816Z,29.72
2018-12-29T22:41:18.495Z,31.37
2018-12-29T22:43:45.681Z,31.95
2018-12-29T22:46:12.914Z,31.77
2018-12-29T22:48:39.669Z,35.40
2018-12-29T22:51:06.456Z,28.27
2018-12-29T22:53:33.136Z,32.25
2018-12-29T22:55:59.806Z,33.10
2018-12-29T22:58:26.511Z,26.25
2018-12-29T23:00:53.249Z,27.60
2018-12-29T23:03:20.041Z,28.50
2018-12-29T23:05:46.896Z,24.72
2018-12-29T23:08:13.589Z,29.45
2018-12-29T23:10:40.425Z,25.60
2018-12-29T23:13:07.111Z,25.35
2018-12-29T23:15:33.886Z,24.55
2018-12-29T23:18:00.633Z,26.73
2018-12-29T23:20:27.338Z,28.10
2018-12-29T23:22:54.022Z,35.30
2018-12-29T23:25:20.811Z,34.65
2018-12-29T23:27:47.558Z,28.73
2018-12-29T23:30:14.371Z,27.42
2018-12-29T23:32:41.496Z,35.20
2018-12-29T23:35:11.388Z,28.60
2018-12-29T23:37:38.123Z,29.80
2018-12-29T23:40:04.923Z,34.10
2018-12-29T23:42:31.632Z,35.70
2018-12-29T23:44:58.576Z,34.88
2018-12-29T23:47:25.847Z,31.77
2018-12-29T23:49:52.507Z,33.73
2018-12-29T23:52:19.342Z,34.88
2018-12-29T23:54:46.061Z,28.17
2018-12-29T23:57:13.290Z,28.50
2018-12-29T23:59:39.957Z,21.42
